sensor_id;sensor_type;location;lat;lon;timestamp;temperature;humidity
53782;DHT22;39692;53.114;7.060;2022-10-16T00:01:29;12.30;99.90
53782;DHT22;39692;53.114;7.060;2022-10-16T00:03:56;12.30;99.90
53782;DHT22;39692;53.114;7.060;2022-10-16T00:06:22;12.30;99.90
53782;DHT22;39692;53.114;7.060;2022-10-16T00:08:48;12.20;99.90
53782;DHT22;39692;53.114;7.060;2022-10-16T00:13:41;12.20;99.90
53782;DHT22;39692;53.114;7.060;2022-10-16T00:16:08;12.20;99.90
53782;DHT22;39692;53.114;7.060;2022-10-16T00:18:34;12.10;99.90
53782;DHT22;39692;53.114;7.060;2022-10-16T00:21:10;12.10;99.90
53782;DHT22;39692;53.114;7.060;2022-10-16T00:23:36;12.10;99.90
53782;DHT22;39692;53.114;7.060;2022-10-16T00:26:05;12.10;99.90
53782;DHT22;39692;53.114;7.060;2022-10-16T00:28:32;12.10;99.90
53782;DHT22;39692;53.114;7.060;2022-10-16T00:30:58;12.10;99.90
53782;DHT22;39692;53.114;7.060;2022-10-16T00:33:24;12.10;99.90
53782;DHT22;39692;53.114;7.060;2022-10-16T00:35:50;12.10;99.90
53782;DHT22;39692;53.114;7.060;2022-10-16T00:38:16;12.10;99.90
53782;DHT22;39692;53.114;7.060;2022-10-16T00:40:42;12.10;99.90
53782;DHT22;39692;53.114;7.060;2022-10-16T00:46:00;12.10;99.90
53782;DHT22;39692;53.114;7.060;2022-10-16T00:48:27;12.10;99.90
53782;DHT22;39692;53.114;7.060;2022-10-16T00:50:53;12.10;99.90
53782;DHT22;39692;53.114;7.060;2022-10-16T00:53:19;12.10;99.90
53782;DHT22;39692;53.114;7.060;2022-10-16T00:55:45;12.10;99.90
53782;DHT22;39692;53.114;7.060;2022-10-16T00:58:11;12.10;99.90
53782;DHT22;39692;53.114;7.060;2022-10-16T01:00:37;12.20;99.90
53782;DHT22;39692;53.114;7.060;2022-10-16T01:03:26;12.20;99.90
53782;DHT22;39692;53.114;7.060;2022-10-16T01:09:05;12.10;99.90
53782;DHT22;39692;53.114;7.060;2022-10-16T01:14:32;12.10;99.90
53782;DHT22;39692;53.114;7.060;2022-10-16T01:17:10;12.10;99.90
53782;DHT22;39692;53.114;7.060;2022-10-16T01:22:22;12.10;99.90
53782;DHT22;39692;53.114;7.060;2022-10-16T01:24:49;12.10;99.90
53782;DHT22;39692;53.114;7.060;2022-10-16T01:27:21;12.10;99.90
53782;DHT22;39692;53.114;7.060;2022-10-16T01:32:25;12.10;99.90
53782;DHT22;39692;53.114;7.060;2022-10-16T01:34:59;12.10;99.90
53782;DHT22;39692;53.114;7.060;2022-10-16T01:37:40;12.10;99.90
53782;DHT22;39692;53.114;7.060;2022-10-16T01:40:11;12.20;99.90
53782;DHT22;39692;53.114;7.060;2022-10-16T01:42:42;12.20;99.90
53782;DHT22;39692;53.114;7.060;2022-10-16T01:45:13;12.30;99.90
53782;DHT22;39692;53.114;7.060;2022-10-16T01:47:41;12.40;99.90
53782;DHT22;39692;53.114;7.060;2022-10-16T01:50:09;12.40;99.90
53782;DHT22;39692;53.114;7.060;2022-10-16T01:52:39;12.40;99.90
53782;DHT22;39692;53.114;7.060;2022-10-16T01:55:07;12.50;99.90
53782;DHT22;39692;53.114;7.060;2022-10-16T01:57:36;12.50;99.90
53782;DHT22;39692;53.114;7.060;2022-10-16T02:00:07;12.50;99.90
53782;DHT22;39692;53.114;7.060;2022-10-16T02:02:34;12.50;99.90
53782;DHT22;39692;53.114;7.060;2022-10-16T02:05:20;12.50;99.90
53782;DHT22;39692;53.114;7.060;2022-10-16T02:07:48;12.50;99.90
53782;DHT22;39692;53.114;7.060;2022-10-16T02:10:14;12.50;99.90
53782;DHT22;39692;53.114;7.060;2022-10-16T02:12:50;12.50;99.90
53782;DHT22;39692;53.114;7.060;2022-10-16T02:15:19;12.60;99.90
53782;DHT22;39692;53.114;7.060;2022-10-16T02:17:44;12.60;99.90
53782;DHT22;39692;53.114;7.060;2022-10-16T02:20:10;12.60;99.90
53782;DHT22;39692;53.114;7.060;2022-10-16T02:22:40;12.60;99.90
53782;DHT22;39692;53.114;7.060;2022-10-16T02:25:34;12.60;99.90
53782;DHT22;39692;53.114;7.060;2022-10-16T02:28:08;12.60;99.90
53782;DHT22;39692;53.114;7.060;2022-10-16T02:30:44;12.60;99.90
53782;DHT22;39692;53.114;7.060;2022-10-16T02:33:14;12.60;99.90
53782;DHT22;39692;53.114;7.060;2022-10-16T02:35:41;12.60;99.90
53782;DHT22;39692;53.114;7.060;2022-10-16T02:38:09;12.70;99.90
53782;DHT22;39692;53.114;7.060;2022-10-16T02:40:36;12.70;99.90
53782;DHT22;39692;53.114;7.060;2022-10-16T02:43:03;12.70;99.90
53782;DHT22;39692;53.114;7.060;2022-10-16T02:45:30;12.70;99.90
53782;DHT22;39692;53.114;7.060;2022-10-16T02:47:55;12.70;99.90
53782;DHT22;39692;53.114;7.060;2022-10-16T02:50:21;12.80;99.90
53782;DHT22;39692;53.114;7.060;2022-10-16T02:52:47;12.70;99.90
53782;DHT22;39692;53.114;7.060;2022-10-16T02:55:13;12.70;99.90
53782;DHT22;39692;53.114;7.060;2022-10-16T02:57:39;12.70;99.90
53782;DHT22;39692;53.114;7.060;2022-10-16T03:00:07;12.70;99.90
53782;DHT22;39692;53.114;7.060;2022-10-16T03:02:33;12.70;99.90
53782;DHT22;39692;53.114;7.060;2022-10-16T03:04:59;12.80;99.90
53782;DHT22;39692;53.114;7.060;2022-10-16T03:07:24;12.80;99.90
53782;DHT22;39692;53.114;7.060;2022-10-16T03:09:50;12.80;99.90
53782;DHT22;39692;53.114;7.060;2022-10-16T03:12:16;12.80;99.90
53782;DHT22;39692;53.114;7.060;2022-10-16T03:14:41;12.80;99.90
53782;DHT22;39692;53.114;7.060;2022-10-16T03:17:07;12.80;99.90
53782;DHT22;39692;53.114;7.060;2022-10-16T03:19:33;12.90;99.90
53782;DHT22;39692;53.114;7.060;2022-10-16T03:21:58;12.90;99.90
53782;DHT22;39692;53.114;7.060;2022-10-16T03:24:24;12.90;99.90
53782;DHT22;39692;53.114;7.060;2022-10-16T03:26:49;12.90;99.90
53782;DHT22;39692;53.114;7.060;2022-10-16T03:29:15;12.90;99.90
53782;DHT22;39692;53.114;7.060;2022-10-16T03:31:41;13.00;99.90
53782;DHT22;39692;53.114;7.060;2022-10-16T03:34:07;12.90;99.90
53782;DHT22;39692;53.114;7.060;2022-10-16T03:36:32;12.90;99.90
53782;DHT22;39692;53.114;7.060;2022-10-16T03:38:58;12.90;99.90
53782;DHT22;39692;53.114;7.060;2022-10-16T03:41:23;12.90;99.90
53782;DHT22;39692;53.114;7.060;2022-10-16T03:43:49;12.90;99.90
53782;DHT22;39692;53.114;7.060;2022-10-16T03:46:15;12.90;99.90
53782;DHT22;39692;53.114;7.060;2022-10-16T03:48:40;13.00;99.90
53782;DHT22;39692;53.114;7.060;2022-10-16T03:51:06;12.90;99.90
53782;DHT22;39692;53.114;7.060;2022-10-16T03:53:32;12.90;99.90
53782;DHT22;39692;53.114;7.060;2022-10-16T03:55:57;12.90;99.90
53782;DHT22;39692;53.114;7.060;2022-10-16T03:58:23;12.90;99.90
53782;DHT22;39692;53.114;7.060;2022-10-16T04:00:49;12.80;99.90
53782;DHT22;39692;53.114;7.060;2022-10-16T04:03:15;12.90;99.90
53782;DHT22;39692;53.114;7.060;2022-10-16T04:05:41;12.90;99.90
53782;DHT22;39692;53.114;7.060;2022-10-16T04:08:07;12.80;99.90
53782;DHT22;39692;53.114;7.060;2022-10-16T04:10:33;12.80;99.90
53782;DHT22;39692;53.114;7.060;2022-10-16T04:12:58;12.80;99.90
53782;DHT22;39692;53.114;7.060;2022-10-16T04:15:24;12.80;99.90
53782;DHT22;39692;53.114;7.060;2022-10-16T04:17:51;12.80;99.90
53782;DHT22;39692;53.114;7.060;2022-10-16T04:20:17;12.80;99.90
53782;DHT22;39692;53.114;7.060;2022-10-16T04:22:42;12.80;99.90
53782;DHT22;39692;53.114;7.060;2022-10-16T04:25:08;12.80;99.90
53782;DHT22;39692;53.114;7.060;2022-10-16T04:27:34;12.80;99.90
53782;DHT22;39692;53.114;7.060;2022-10-16T04:30:00;12.70;99.90
53782;DHT22;39692;53.114;7.060;2022-10-16T04:32:26;12.70;99.90
53782;DHT22;39692;53.114;7.060;2022-10-16T04:34:52;12.60;99.90
53782;DHT22;39692;53.114;7.060;2022-10-16T04:37:18;12.60;99.90
53782;DHT22;39692;53.114;7.060;2022-10-16T04:39:43;12.60;99.90
53782;DHT22;39692;53.114;7.060;2022-10-16T04:42:10;12.50;99.90
53782;DHT22;39692;53.114;7.060;2022-10-16T04:44:36;12.50;99.90
53782;DHT22;39692;53.114;7.060;2022-10-16T04:47:02;12.50;99.90
53782;DHT22;39692;53.114;7.060;2022-10-16T04:49:28;12.50;99.90
53782;DHT22;39692;53.114;7.060;2022-10-16T04:51:53;12.60;99.90
53782;DHT22;39692;53.114;7.060;2022-10-16T04:54:19;12.60;99.90
53782;DHT22;39692;53.114;7.060;2022-10-16T04:56:45;12.60;99.90
53782;DHT22;39692;53.114;7.060;2022-10-16T04:59:16;12.60;99.90
53782;DHT22;39692;53.114;7.060;2022-10-16T05:01:42;12.60;99.90
53782;DHT22;39692;53.114;7.060;2022-10-16T05:04:08;12.60;99.90
53782;DHT22;39692;53.114;7.060;2022-10-16T05:06:34;12.60;99.90
53782;DHT22;39692;53.114;7.060;2022-10-16T05:08:59;12.50;99.90
53782;DHT22;39692;53.114;7.060;2022-10-16T05:11:25;12.50;99.90
53782;DHT22;39692;53.114;7.060;2022-10-16T05:13:51;12.50;99.90
53782;DHT22;39692;53.114;7.060;2022-10-16T05:16:16;12.50;99.90
53782;DHT22;39692;53.114;7.060;2022-10-16T05:18:42;12.60;99.90
53782;DHT22;39692;53.114;7.060;2022-10-16T05:21:08;12.60;99.90
53782;DHT22;39692;53.114;7.060;2022-10-16T05:23:34;12.60;99.90
53782;DHT22;39692;53.114;7.060;2022-10-16T05:25:59;12.60;99.90
53782;DHT22;39692;53.114;7.060;2022-10-16T05:28:26;12.60;99.90
53782;DHT22;39692;53.114;7.060;2022-10-16T05:30:53;12.60;99.90
53782;DHT22;39692;53.114;7.060;2022-10-16T05:33:23;12.60;99.90
53782;DHT22;39692;53.114;7.060;2022-10-16T05:35:49;12.60;99.90
53782;DHT22;39692;53.114;7.060;2022-10-16T05:38:16;12.60;99.90
53782;DHT22;39692;53.114;7.060;2022-10-16T05:40:41;12.60;99.90
53782;DHT22;39692;53.114;7.060;2022-10-16T05:43:07;12.60;99.90
53782;DHT22;39692;53.114;7.060;2022-10-16T05:45:33;12.60;99.90
53782;DHT22;39692;53.114;7.060;2022-10-16T05:47:59;12.60;99.90
53782;DHT22;39692;53.114;7.060;2022-10-16T05:50:25;12.50;99.90
53782;DHT22;39692;53.114;7.060;2022-10-16T05:52:51;12.50;99.90
53782;DHT22;39692;53.114;7.060;2022-10-16T05:55:17;12.60;99.90
53782;DHT22;39692;53.114;7.060;2022-10-16T05:57:42;12.60;99.90
53782;DHT22;39692;53.114;7.060;2022-10-16T06:00:08;12.60;99.90
53782;DHT22;39692;53.114;7.060;2022-10-16T06:02:34;12.60;99.90
53782;DHT22;39692;53.114;7.060;2022-10-16T06:05:00;12.60;99.90
53782;DHT22;39692;53.114;7.060;2022-10-16T06:07:26;12.60;99.90
53782;DHT22;39692;53.114;7.060;2022-10-16T06:09:52;12.60;99.90
53782;DHT22;39692;53.114;7.060;2022-10-16T06:12:19;12.60;99.90
53782;DHT22;39692;53.114;7.060;2022-10-16T06:14:46;12.70;99.90
53782;DHT22;39692;53.114;7.060;2022-10-16T06:17:15;12.70;99.90
53782;DHT22;39692;53.114;7.060;2022-10-16T06:19:40;12.70;99.90
53782;DHT22;39692;53.114;7.060;2022-10-16T06:22:06;12.70;99.90
53782;DHT22;39692;53.114;7.060;2022-10-16T06:24:32;12.80;99.90
53782;DHT22;39692;53.114;7.060;2022-10-16T06:26:58;12.80;99.90
53782;DHT22;39692;53.114;7.060;2022-10-16T06:29:23;12.80;99.90
53782;DHT22;39692;53.114;7.060;2022-10-16T06:31:49;12.80;99.90
53782;DHT22;39692;53.114;7.060;2022-10-16T06:34:15;12.80;99.90
53782;DHT22;39692;53.114;7.060;2022-10-16T06:36:40;12.80;99.90
53782;DHT22;39692;53.114;7.060;2022-10-16T06:39:06;12.90;99.90
53782;DHT22;39692;53.114;7.060;2022-10-16T06:41:35;12.90;99.90
53782;DHT22;39692;53.114;7.060;2022-10-16T06:44:04;13.00;99.90
53782;DHT22;39692;53.114;7.060;2022-10-16T06:46:30;13.00;99.90
53782;DHT22;39692;53.114;7.060;2022-10-16T06:48:56;13.00;99.90
53782;DHT22;39692;53.114;7.060;2022-10-16T06:51:23;13.00;99.90
53782;DHT22;39692;53.114;7.060;2022-10-16T06:53:54;12.90;99.90
53782;DHT22;39692;53.114;7.060;2022-10-16T06:56:21;13.00;99.90
53782;DHT22;39692;53.114;7.060;2022-10-16T06:58:48;12.90;99.90
53782;DHT22;39692;53.114;7.060;2022-10-16T07:01:14;12.90;99.90
53782;DHT22;39692;53.114;7.060;2022-10-16T07:03:42;13.00;99.90
53782;DHT22;39692;53.114;7.060;2022-10-16T07:06:10;13.10;99.90
53782;DHT22;39692;53.114;7.060;2022-10-16T07:08:40;13.10;99.90
53782;DHT22;39692;53.114;7.060;2022-10-16T07:11:09;13.20;99.90
53782;DHT22;39692;53.114;7.060;2022-10-16T07:13:36;13.20;99.90
53782;DHT22;39692;53.114;7.060;2022-10-16T07:16:12;13.20;99.90
53782;DHT22;39692;53.114;7.060;2022-10-16T07:18:40;13.40;99.90
53782;DHT22;39692;53.114;7.060;2022-10-16T07:21:16;13.40;99.90
53782;DHT22;39692;53.114;7.060;2022-10-16T07:23:43;13.40;99.90
53782;DHT22;39692;53.114;7.060;2022-10-16T07:26:09;13.40;99.90
53782;DHT22;39692;53.114;7.060;2022-10-16T07:28:36;13.40;99.90
53782;DHT22;39692;53.114;7.060;2022-10-16T07:31:07;13.40;99.90
53782;DHT22;39692;53.114;7.060;2022-10-16T07:33:34;13.50;99.90
53782;DHT22;39692;53.114;7.060;2022-10-16T07:35:59;13.50;99.90
53782;DHT22;39692;53.114;7.060;2022-10-16T07:38:25;13.60;99.90
53782;DHT22;39692;53.114;7.060;2022-10-16T07:43:24;14.30;99.90
53782;DHT22;39692;53.114;7.060;2022-10-16T07:45:50;14.30;99.90
53782;DHT22;39692;53.114;7.060;2022-10-16T07:48:17;14.30;99.90
53782;DHT22;39692;53.114;7.060;2022-10-16T07:50:43;14.20;99.90
53782;DHT22;39692;53.114;7.060;2022-10-16T07:53:10;14.20;99.90
53782;DHT22;39692;53.114;7.060;2022-10-16T07:55:36;14.20;99.90
53782;DHT22;39692;53.114;7.060;2022-10-16T07:58:02;14.20;99.90
53782;DHT22;39692;53.114;7.060;2022-10-16T08:00:27;14.10;99.90
53782;DHT22;39692;53.114;7.060;2022-10-16T08:02:53;14.20;99.90
53782;DHT22;39692;53.114;7.060;2022-10-16T08:05:19;14.30;99.90
53782;DHT22;39692;53.114;7.060;2022-10-16T08:07:49;14.30;99.90
53782;DHT22;39692;53.114;7.060;2022-10-16T08:10:19;14.30;99.90
53782;DHT22;39692;53.114;7.060;2022-10-16T08:12:45;14.40;99.90
53782;DHT22;39692;53.114;7.060;2022-10-16T08:15:11;14.90;99.90
53782;DHT22;39692;53.114;7.060;2022-10-16T08:17:37;15.00;99.90
53782;DHT22;39692;53.114;7.060;2022-10-16T08:20:03;15.00;99.90
53782;DHT22;39692;53.114;7.060;2022-10-16T08:22:29;14.90;99.90
53782;DHT22;39692;53.114;7.060;2022-10-16T08:24:55;14.90;99.90
53782;DHT22;39692;53.114;7.060;2022-10-16T08:27:21;15.50;99.90
53782;DHT22;39692;53.114;7.060;2022-10-16T08:29:48;17.00;99.90
53782;DHT22;39692;53.114;7.060;2022-10-16T08:32:14;18.00;99.90
53782;DHT22;39692;53.114;7.060;2022-10-16T08:34:39;18.20;99.90
53782;DHT22;39692;53.114;7.060;2022-10-16T08:37:05;17.70;99.90
53782;DHT22;39692;53.114;7.060;2022-10-16T08:39:33;17.20;99.90
53782;DHT22;39692;53.114;7.060;2022-10-16T08:44:28;16.20;99.90
53782;DHT22;39692;53.114;7.060;2022-10-16T08:47:15;15.90;99.90
53782;DHT22;39692;53.114;7.060;2022-10-16T08:49:57;15.80;99.90
53782;DHT22;39692;53.114;7.060;2022-10-16T08:52:28;15.60;99.90
53782;DHT22;39692;53.114;7.060;2022-10-16T08:54:55;15.40;99.90
53782;DHT22;39692;53.114;7.060;2022-10-16T08:57:22;15.30;99.90
53782;DHT22;39692;53.114;7.060;2022-10-16T08:59:49;15.30;99.90
53782;DHT22;39692;53.114;7.060;2022-10-16T09:02:24;15.40;99.90
53782;DHT22;39692;53.114;7.060;2022-10-16T09:05:21;15.50;99.90
53782;DHT22;39692;53.114;7.060;2022-10-16T09:10:44;15.80;99.90
53782;DHT22;39692;53.114;7.060;2022-10-16T09:21:36;15.80;99.90
53782;DHT22;39692;53.114;7.060;2022-10-16T09:24:18;15.70;99.90
53782;DHT22;39692;53.114;7.060;2022-10-16T09:26:45;15.60;99.90
53782;DHT22;39692;53.114;7.060;2022-10-16T09:29:15;15.60;99.90
53782;DHT22;39692;53.114;7.060;2022-10-16T09:31:41;15.70;99.90
53782;DHT22;39692;53.114;7.060;2022-10-16T09:36:44;15.80;99.90
53782;DHT22;39692;53.114;7.060;2022-10-16T09:39:12;16.10;99.90
53782;DHT22;39692;53.114;7.060;2022-10-16T09:41:40;16.00;99.90
53782;DHT22;39692;53.114;7.060;2022-10-16T09:44:23;16.00;99.90
53782;DHT22;39692;53.114;7.060;2022-10-16T09:47:05;16.10;99.90
53782;DHT22;39692;53.114;7.060;2022-10-16T09:49:31;16.20;99.90
53782;DHT22;39692;53.114;7.060;2022-10-16T09:52:14;16.40;99.90
53782;DHT22;39692;53.114;7.060;2022-10-16T09:57:20;16.80;99.90
53782;DHT22;39692;53.114;7.060;2022-10-16T09:59:51;16.90;99.90
53782;DHT22;39692;53.114;7.060;2022-10-16T10:02:19;17.00;99.90
53782;DHT22;39692;53.114;7.060;2022-10-16T10:04:51;17.10;99.90
53782;DHT22;39692;53.114;7.060;2022-10-16T10:07:32;17.00;99.90
53782;DHT22;39692;53.114;7.060;2022-10-16T10:10:00;17.10;99.90
53782;DHT22;39692;53.114;7.060;2022-10-16T10:12:31;17.10;99.90
53782;DHT22;39692;53.114;7.060;2022-10-16T10:15:03;17.30;99.90
53782;DHT22;39692;53.114;7.060;2022-10-16T10:17:30;17.30;99.90
53782;DHT22;39692;53.114;7.060;2022-10-16T10:20:01;17.30;99.90
53782;DHT22;39692;53.114;7.060;2022-10-16T10:22:43;17.30;99.90
53782;DHT22;39692;53.114;7.060;2022-10-16T10:33:19;17.00;99.90
53782;DHT22;39692;53.114;7.060;2022-10-16T10:36:26;17.10;99.90
53782;DHT22;39692;53.114;7.060;2022-10-16T10:41:44;17.40;99.90
53782;DHT22;39692;53.114;7.060;2022-10-16T10:53:02;19.90;99.90
53782;DHT22;39692;53.114;7.060;2022-10-16T11:03:50;20.40;99.90
53782;DHT22;39692;53.114;7.060;2022-10-16T11:06:45;21.10;98.90
53782;DHT22;39692;53.114;7.060;2022-10-16T11:09:20;21.70;79.70
53782;DHT22;39692;53.114;7.060;2022-10-16T11:11:51;22.60;81.50
53782;DHT22;39692;53.114;7.060;2022-10-16T11:14:42;23.60;80.40
53782;DHT22;39692;53.114;7.060;2022-10-16T11:17:18;24.40;67.00
53782;DHT22;39692;53.114;7.060;2022-10-16T11:22:54;24.70;67.50
53782;DHT22;39692;53.114;7.060;2022-10-16T11:25:28;23.90;67.40
53782;DHT22;39692;53.114;7.060;2022-10-16T11:28:16;23.70;66.50
53782;DHT22;39692;53.114;7.060;2022-10-16T11:31:03;23.60;67.00
53782;DHT22;39692;53.114;7.060;2022-10-16T11:33:36;22.30;70.50
53782;DHT22;39692;53.114;7.060;2022-10-16T11:41:26;24.40;66.40
53782;DHT22;39692;53.114;7.060;2022-10-16T11:44:05;24.60;63.60
53782;DHT22;39692;53.114;7.060;2022-10-16T11:46:32;25.10;62.60
53782;DHT22;39692;53.114;7.060;2022-10-16T11:49:13;25.30;63.50
53782;DHT22;39692;53.114;7.060;2022-10-16T11:54:57;23.70;65.60
53782;DHT22;39692;53.114;7.060;2022-10-16T11:57:28;23.50;66.80
53782;DHT22;39692;53.114;7.060;2022-10-16T12:03:08;22.70;70.40
53782;DHT22;39692;53.114;7.060;2022-10-16T12:05:55;23.00;68.70
53782;DHT22;39692;53.114;7.060;2022-10-16T12:08:24;23.50;69.10
53782;DHT22;39692;53.114;7.060;2022-10-16T12:10:50;24.30;66.50
53782;DHT22;39692;53.114;7.060;2022-10-16T12:13:36;25.00;63.50
53782;DHT22;39692;53.114;7.060;2022-10-16T12:18:42;26.20;59.90
53782;DHT22;39692;53.114;7.060;2022-10-16T12:21:10;25.90;59.40
53782;DHT22;39692;53.114;7.060;2022-10-16T12:23:56;25.70;60.00
53782;DHT22;39692;53.114;7.060;2022-10-16T12:26:32;25.90;57.50
53782;DHT22;39692;53.114;7.060;2022-10-16T12:29:30;26.00;58.10
53782;DHT22;39692;53.114;7.060;2022-10-16T12:31:57;25.50;58.20
53782;DHT22;39692;53.114;7.060;2022-10-16T12:37:22;25.20;60.20
53782;DHT22;39692;53.114;7.060;2022-10-16T12:39:50;25.00;59.10
53782;DHT22;39692;53.114;7.060;2022-10-16T12:44:52;25.20;56.40
53782;DHT22;39692;53.114;7.060;2022-10-16T12:47:38;25.30;57.00
53782;DHT22;39692;53.114;7.060;2022-10-16T12:50:24;25.70;56.80
53782;DHT22;39692;53.114;7.060;2022-10-16T12:52:50;25.30;55.80
53782;DHT22;39692;53.114;7.060;2022-10-16T12:55:19;24.80;57.80
53782;DHT22;39692;53.114;7.060;2022-10-16T13:00:41;23.20;61.50
53782;DHT22;39692;53.114;7.060;2022-10-16T13:06:06;23.10;61.70
53782;DHT22;39692;53.114;7.060;2022-10-16T13:22:46;20.90;66.40
53782;DHT22;39692;53.114;7.060;2022-10-16T13:25:31;20.40;68.60
53782;DHT22;39692;53.114;7.060;2022-10-16T13:28:09;20.20;71.00
53782;DHT22;39692;53.114;7.060;2022-10-16T13:30:42;20.00;75.80
53782;DHT22;39692;53.114;7.060;2022-10-16T13:33:21;19.80;80.00
53782;DHT22;39692;53.114;7.060;2022-10-16T13:35:51;19.70;77.60
53782;DHT22;39692;53.114;7.060;2022-10-16T13:38:21;19.70;81.90
53782;DHT22;39692;53.114;7.060;2022-10-16T13:41:01;19.70;81.80
53782;DHT22;39692;53.114;7.060;2022-10-16T13:48:36;19.10;86.20
53782;DHT22;39692;53.114;7.060;2022-10-16T13:53:38;18.90;80.40
53782;DHT22;39692;53.114;7.060;2022-10-16T13:56:07;18.80;81.30
53782;DHT22;39692;53.114;7.060;2022-10-16T13:58:35;18.70;80.80
53782;DHT22;39692;53.114;7.060;2022-10-16T14:01:06;18.60;84.50
53782;DHT22;39692;53.114;7.060;2022-10-16T14:03:41;18.60;86.40
53782;DHT22;39692;53.114;7.060;2022-10-16T14:06:15;18.60;87.80
53782;DHT22;39692;53.114;7.060;2022-10-16T14:08:46;18.40;87.20
53782;DHT22;39692;53.114;7.060;2022-10-16T14:11:21;18.40;87.90
53782;DHT22;39692;53.114;7.060;2022-10-16T14:13:49;18.30;89.30
53782;DHT22;39692;53.114;7.060;2022-10-16T14:16:22;18.20;87.80
53782;DHT22;39692;53.114;7.060;2022-10-16T14:19:06;18.10;88.30
53782;DHT22;39692;53.114;7.060;2022-10-16T14:21:34;17.90;91.10
53782;DHT22;39692;53.114;7.060;2022-10-16T14:24:11;17.90;93.60
53782;DHT22;39692;53.114;7.060;2022-10-16T14:26:44;17.90;94.70
53782;DHT22;39692;53.114;7.060;2022-10-16T14:29:15;17.90;94.70
53782;DHT22;39692;53.114;7.060;2022-10-16T14:31:43;17.90;94.60
53782;DHT22;39692;53.114;7.060;2022-10-16T14:34:24;17.80;92.20
53782;DHT22;39692;53.114;7.060;2022-10-16T14:36:50;17.70;91.30
53782;DHT22;39692;53.114;7.060;2022-10-16T14:39:21;17.60;91.60
53782;DHT22;39692;53.114;7.060;2022-10-16T14:41:49;17.40;92.30
53782;DHT22;39692;53.114;7.060;2022-10-16T14:44:17;17.30;95.60
53782;DHT22;39692;53.114;7.060;2022-10-16T14:46:43;17.20;95.40
53782;DHT22;39692;53.114;7.060;2022-10-16T14:51:36;17.00;99.80
53782;DHT22;39692;53.114;7.060;2022-10-16T14:54:02;17.00;99.90
53782;DHT22;39692;53.114;7.060;2022-10-16T14:56:50;17.00;99.90
53782;DHT22;39692;53.114;7.060;2022-10-16T15:01:45;16.90;99.90
53782;DHT22;39692;53.114;7.060;2022-10-16T15:04:12;16.90;99.90
53782;DHT22;39692;53.114;7.060;2022-10-16T15:06:37;16.90;99.90
53782;DHT22;39692;53.114;7.060;2022-10-16T15:09:03;16.80;99.90
53782;DHT22;39692;53.114;7.060;2022-10-16T15:11:31;16.70;99.90
53782;DHT22;39692;53.114;7.060;2022-10-16T15:16:24;16.60;99.90
53782;DHT22;39692;53.114;7.060;2022-10-16T15:18:49;16.60;99.90
53782;DHT22;39692;53.114;7.060;2022-10-16T15:23:51;16.50;99.90
53782;DHT22;39692;53.114;7.060;2022-10-16T15:26:17;16.40;99.90
53782;DHT22;39692;53.114;7.060;2022-10-16T15:28:43;16.40;99.90
53782;DHT22;39692;53.114;7.060;2022-10-16T15:31:09;16.40;99.90
53782;DHT22;39692;53.114;7.060;2022-10-16T15:33:34;16.30;99.90
53782;DHT22;39692;53.114;7.060;2022-10-16T15:36:01;16.20;99.90
53782;DHT22;39692;53.114;7.060;2022-10-16T15:38:28;16.10;99.90
53782;DHT22;39692;53.114;7.060;2022-10-16T15:40:54;16.10;99.90
53782;DHT22;39692;53.114;7.060;2022-10-16T15:43:20;16.00;99.90
53782;DHT22;39692;53.114;7.060;2022-10-16T15:46:15;15.90;99.90
53782;DHT22;39692;53.114;7.060;2022-10-16T15:48:42;15.90;99.90
53782;DHT22;39692;53.114;7.060;2022-10-16T15:51:09;15.80;99.90
53782;DHT22;39692;53.114;7.060;2022-10-16T15:53:35;15.80;99.90
53782;DHT22;39692;53.114;7.060;2022-10-16T15:56:05;15.70;99.90
53782;DHT22;39692;53.114;7.060;2022-10-16T15:58:31;15.60;99.90
53782;DHT22;39692;53.114;7.060;2022-10-16T16:00:58;15.60;99.90
53782;DHT22;39692;53.114;7.060;2022-10-16T16:03:26;15.40;99.90
53782;DHT22;39692;53.114;7.060;2022-10-16T16:05:52;15.30;99.90
53782;DHT22;39692;53.114;7.060;2022-10-16T16:10:44;15.20;99.90
53782;DHT22;39692;53.114;7.060;2022-10-16T16:13:10;15.20;99.90
53782;DHT22;39692;53.114;7.060;2022-10-16T16:15:39;15.10;99.90
53782;DHT22;39692;53.114;7.060;2022-10-16T16:18:06;15.10;99.90
53782;DHT22;39692;53.114;7.060;2022-10-16T16:20:32;15.10;99.90
53782;DHT22;39692;53.114;7.060;2022-10-16T16:22:57;15.10;99.90
53782;DHT22;39692;53.114;7.060;2022-10-16T16:32:44;14.90;99.90
53782;DHT22;39692;53.114;7.060;2022-10-16T16:37:36;14.80;99.90
53782;DHT22;39692;53.114;7.060;2022-10-16T16:40:01;14.80;99.90
53782;DHT22;39692;53.114;7.060;2022-10-16T16:42:28;14.70;99.90
53782;DHT22;39692;53.114;7.060;2022-10-16T16:44:54;14.70;99.90
53782;DHT22;39692;53.114;7.060;2022-10-16T16:49:46;14.60;99.90
53782;DHT22;39692;53.114;7.060;2022-10-16T16:52:12;14.50;99.90
53782;DHT22;39692;53.114;7.060;2022-10-16T16:54:38;14.50;99.90
53782;DHT22;39692;53.114;7.060;2022-10-16T16:57:04;14.50;99.90
53782;DHT22;39692;53.114;7.060;2022-10-16T16:59:30;14.40;99.90
53782;DHT22;39692;53.114;7.060;2022-10-16T17:01:59;14.30;99.90
53782;DHT22;39692;53.114;7.060;2022-10-16T17:04:25;14.20;99.90
53782;DHT22;39692;53.114;7.060;2022-10-16T17:06:53;14.20;99.90
53782;DHT22;39692;53.114;7.060;2022-10-16T17:09:19;14.20;99.90
53782;DHT22;39692;53.114;7.060;2022-10-16T17:11:44;14.20;99.90
53782;DHT22;39692;53.114;7.060;2022-10-16T17:14:11;14.10;99.90
53782;DHT22;39692;53.114;7.060;2022-10-16T17:16:38;14.10;99.90
53782;DHT22;39692;53.114;7.060;2022-10-16T17:21:36;14.00;99.90
53782;DHT22;39692;53.114;7.060;2022-10-16T17:24:03;14.00;99.90
53782;DHT22;39692;53.114;7.060;2022-10-16T17:26:29;13.80;99.90
53782;DHT22;39692;53.114;7.060;2022-10-16T17:28:57;13.80;99.90
53782;DHT22;39692;53.114;7.060;2022-10-16T17:31:26;13.70;99.90
53782;DHT22;39692;53.114;7.060;2022-10-16T17:33:52;13.50;99.90
53782;DHT22;39692;53.114;7.060;2022-10-16T17:36:19;13.40;99.90
53782;DHT22;39692;53.114;7.060;2022-10-16T17:38:45;13.30;99.90
53782;DHT22;39692;53.114;7.060;2022-10-16T17:41:19;13.10;99.90
53782;DHT22;39692;53.114;7.060;2022-10-16T17:43:45;13.10;99.90
53782;DHT22;39692;53.114;7.060;2022-10-16T17:46:12;13.10;99.90
53782;DHT22;39692;53.114;7.060;2022-10-16T17:48:39;13.10;99.90
53782;DHT22;39692;53.114;7.060;2022-10-16T17:51:06;13.10;99.90
53782;DHT22;39692;53.114;7.060;2022-10-16T17:53:33;13.10;99.90
53782;DHT22;39692;53.114;7.060;2022-10-16T17:56:18;13.10;99.90
53782;DHT22;39692;53.114;7.060;2022-10-16T17:58:51;13.10;99.90
53782;DHT22;39692;53.114;7.060;2022-10-16T18:01:26;13.10;99.90
53782;DHT22;39692;53.114;7.060;2022-10-16T18:04:01;13.00;99.90
53782;DHT22;39692;53.114;7.060;2022-10-16T18:06:27;13.00;99.90